Time;durP1;ratioP1;P1;durP2;ratioP2;P2;SDS_P1;SDS_P2;PMS_P1;PMS_P2;Temp;Humidity;BMP_temperature;BMP_pressure;BME280_temperature;BME280_humidity;BME280_pressure;Samples;Min_cycle;Max_cycle;Signal;HPM_P1;HPM_P2
2021/01/15 03:45:51;;;;;;;6.50;4.13;;;2.10;99.90;;;;;;5774001;23;86647;-79
2021/01/15 03:48:19;;;;;;;7.63;4.30;;;2.10;99.90;;;;;;4916280;28;83624;-78
2021/01/15 03:50:45;;;;;;;6.68;4.22;;;2.10;99.90;;;;;;4915915;28;83152;-78
2021/01/15 03:53:14;;;;;;;6.35;4.00;;;2.00;99.90;;;;;;4913794;28;84498;-80
2021/01/15 03:55:41;;;;;;;7.63;4.63;;;2.10;99.90;;;;;;4915581;28;84254;-79
2021/01/15 03:58:07;;;;;;;7.10;4.65;;;2.10;99.90;;;;;;4909534;28;84131;-79
2021/01/15 04:00:32;;;;;;;7.05;4.85;;;2.00;99.90;;;;;;4914945;28;83733;-80
2021/01/15 04:02:58;;;;;;;6.60;4.57;;;2.00;99.90;;;;;;4911029;28;84615;-80
2021/01/15 04:05:24;;;;;;;6.63;4.72;;;1.90;99.90;;;;;;4914503;28;83570;-77
2021/01/15 04:07:50;;;;;;;6.88;4.30;;;1.90;99.90;;;;;;4914998;28;83760;-78
2021/01/15 04:10:17;;;;;;;6.93;4.47;;;1.90;99.90;;;;;;4916304;28;84001;-80
2021/01/15 04:12:43;;;;;;;7.65;4.75;;;1.90;99.90;;;;;;4914181;28;85054;-78
2021/01/15 04:15:14;;;;;;;5.90;4.38;;;1.90;99.90;;;;;;4912724;28;83948;-80
2021/01/15 04:17:41;;;;;;;6.78;4.53;;;1.90;99.90;;;;;;4914091;28;83617;-80
2021/01/15 04:20:08;;;;;;;7.18;4.72;;;1.80;99.90;;;;;;4913654;28;83885;-80
2021/01/15 04:22:39;;;;;;;7.55;4.63;;;1.90;99.90;;;;;;4907783;28;84049;-78
2021/01/15 04:25:07;;;;;;;6.88;4.75;;;1.80;99.90;;;;;;4903015;28;84376;-80
2021/01/15 04:27:34;;;;;;;8.63;6.10;;;1.70;99.90;;;;;;4906685;28;84230;-80
2021/01/15 04:30:04;;;;;;;8.05;4.57;;;1.70;99.90;;;;;;4901446;28;84156;-79
2021/01/15 04:32:30;;;;;;;8.68;4.72;;;1.80;99.90;;;;;;4904957;28;84754;-81
2021/01/15 13:59:00;;;;;;;19.30;10.73;;;2.10;99.90;;;;;;5522363;23;86199;-83
2021/01/15 14:01:26;;;;;;;21.65;15.15;;;;;;;;;;4956067;28;83899;-82
2021/01/15 14:03:52;;;;;;;17.02;10.93;;;2.20;99.90;;;;;;4965639;28;83604;-81
2021/01/15 14:06:18;;;;;;;21.73;13.70;;;2.20;99.90;;;;;;4952273;28;84099;-83
2021/01/15 14:08:43;;;;;;;19.45;11.07;;;2.30;99.90;;;;;;4956166;28;83905;-83
2021/01/15 14:11:09;;;;;;;16.95;9.95;;;2.30;99.90;;;;;;4963200;28;83819;-83
2021/01/15 14:13:35;;;;;;;18.30;13.10;;;;;;;;;;4959480;28;83850;-83
2021/01/15 14:16:01;;;;;;;21.60;14.60;;;2.00;99.90;;;;;;4953915;28;83646;-83
2021/01/15 14:18:27;;;;;;;22.73;12.90;;;2.10;99.90;;;;;;4953815;28;84500;-82
2021/01/15 14:20:53;;;;;;;19.77;12.50;;;2.10;99.90;;;;;;4953451;28;83940;-83
2021/01/15 14:23:20;;;;;;;24.45;15.75;;;2.50;99.90;;;;;;4957043;28;83497;-83
2021/01/15 14:25:46;;;;;;;20.90;11.70;;;2.10;99.90;;;;;;4957581;28;83530;-81
2021/01/15 14:28:12;;;;;;;21.45;12.18;;;2.10;99.90;;;;;;4954999;28;84253;-83
2021/01/15 14:30:38;;;;;;;23.45;13.60;;;2.10;99.90;;;;;;4953739;28;83384;-83
2021/01/15 14:33:04;;;;;;;21.27;12.40;;;2.00;99.90;;;;;;4958986;28;83774;-83
2021/01/15 14:35:29;;;;;;;22.65;12.40;;;2.10;99.90;;;;;;4964276;28;83667;-84
2021/01/15 14:37:57;;;;;;;19.65;12.02;;;2.10;99.90;;;;;;4975480;28;83921;-81
2021/01/15 14:40:24;;;;;;;19.02;10.38;;;2.10;99.90;;;;;;4962182;28;84233;-82
2021/01/15 14:42:50;;;;;;;16.58;11.05;;;2.40;99.90;;;;;;4972392;28;83924;-82
2021/01/15 14:45:16;;;;;;;18.00;11.95;;;2.20;99.90;;;;;;4958002;28;83139;-82
2021/01/15 14:47:42;;;;;;;22.30;13.90;;;;;;;;;;4966056;28;83613;-82
2021/01/15 14:50:11;;;;;;;21.23;13.65;;;2.20;99.90;;;;;;4983315;28;84031;-81
2021/01/15 14:52:48;;;;;;;18.95;12.40;;;2.70;99.90;;;;;;4958411;28;83573;-82
2021/01/15 14:55:15;;;;;;;17.50;10.65;;;2.10;99.90;;;;;;4955392;28;83735;-83
2021/01/15 14:57:41;;;;;;;17.35;10.40;;;2.10;99.90;;;;;;4958329;28;85642;-82
2021/01/15 15:00:09;;;;;;;19.63;12.07;;;2.30;99.90;;;;;;4942835;28;83941;-82
2021/01/15 15:02:47;;;;;;;19.40;12.57;;;2.30;99.90;;;;;;4938756;28;83902;-83
2021/01/15 15:05:16;;;;;;;17.48;11.93;;;1.70;99.90;;;;;;4945203;28;83647;-83
2021/01/15 15:07:50;;;;;;;21.15;11.27;;;1.90;99.90;;;;;;4945886;28;87111;-83
2021/01/15 15:10:19;;;;;;;19.15;10.07;;;1.90;99.90;;;;;;4948193;28;84151;-83
2021/01/15 15:12:52;;;;;;;18.10;10.35;;;1.80;99.90;;;;;;4950231;28;84008;-83
2021/01/15 15:15:19;;;;;;;16.92;11.02;;;;;;;;;;4944386;28;84069;-84
2021/01/15 15:17:46;;;;;;;15.85;9.52;;;1.80;99.90;;;;;;4950106;28;83647;-83
2021/01/15 15:20:15;;;;;;;16.15;11.23;;;2.30;99.90;;;;;;4937653;28;84303;-83
2021/01/15 15:22:41;;;;;;;17.48;11.38;;;2.30;99.90;;;;;;4947840;28;83302;-84
2021/01/15 15:25:08;;;;;;;17.38;11.02;;;1.80;99.90;;;;;;4933951;28;83762;-82
2021/01/15 15:27:33;;;;;;;37.60;19.48;;;1.60;99.90;;;;;;4935760;28;83847;-84
2021/01/15 15:29:59;;;;;;;53.03;24.67;;;1.70;99.90;;;;;;4940944;28;85147;-83
2021/01/15 15:32:25;;;;;;;86.45;35.60;;;1.70;99.90;;;;;;4937786;28;83603;-84
2021/01/15 15:34:50;;;;;;;63.00;27.52;;;1.70;99.90;;;;;;4944911;28;83519;-84
2021/01/15 15:37:16;;;;;;;27.77;13.50;;;1.70;99.90;;;;;;4948959;28;84281;-84
2021/01/15 15:39:43;;;;;;;20.67;12.27;;;;;;;;;;4954689;28;83869;-84
2021/01/15 15:42:10;;;;;;;21.98;13.57;;;1.20;99.90;;;;;;4948021;28;83884;-84
2021/01/15 15:44:35;;;;;;;21.73;11.85;;;1.50;99.90;;;;;;4955458;28;83775;-84
2021/01/15 15:47:01;;;;;;;21.95;11.13;;;1.50;99.90;;;;;;4948815;28;83947;-83
2021/01/15 15:49:27;;;;;;;23.45;13.10;;;1.40;99.90;;;;;;4952585;28;83713;-85
2021/01/15 15:51:53;;;;;;;26.88;15.02;;;1.40;99.90;;;;;;4950958;28;84003;-85
2021/01/15 15:54:19;;;;;;;32.00;17.77;;;1.40;99.90;;;;;;4952375;28;84080;-84
2021/01/15 15:56:54;;;;;;;27.90;15.50;;;1.40;99.90;;;;;;4951984;28;84511;-84
2021/01/15 15:59:19;;;;;;;25.67;13.55;;;1.30;99.90;;;;;;4939987;28;83814;-84
2021/01/15 16:01:46;;;;;;;24.08;14.70;;;;;;;;;;4947868;28;83180;-84
2021/01/15 16:04:12;;;;;;;24.75;14.30;;;;;;;;;;4948790;28;84521;-84
2021/01/15 16:06:40;;;;;;;20.10;11.48;;;1.20;99.90;;;;;;4946520;28;84851;-85
2021/01/15 16:09:06;;;;;;;22.65;12.50;;;1.10;99.90;;;;;;4955326;28;84293;-85
2021/01/15 16:11:32;;;;;;;22.10;11.80;;;1.10;99.90;;;;;;4941451;28;84789;-85
2021/01/15 16:13:58;;;;;;;20.60;10.90;;;1.00;99.90;;;;;;4947515;28;83175;-84
2021/01/15 16:16:30;;;;;;;21.77;11.13;;;1.00;99.90;;;;;;4947115;28;83963;-85
2021/01/15 16:18:55;;;;;;;21.95;11.75;;;0.90;99.90;;;;;;4939578;28;84192;-85
2021/01/15 16:21:23;;;;;;;27.45;14.73;;;0.90;99.90;;;;;;4936734;28;83410;-83
2021/01/15 16:23:50;;;;;;;61.55;25.27;;;0.80;99.90;;;;;;4954181;28;83673;-85
2021/01/15 16:26:16;;;;;;;109.65;41.55;;;;;;;;;;4955190;28;84088;-86
2021/01/15 16:28:42;;;;;;;70.35;33.47;;;0.70;99.90;;;;;;4953992;28;83611;-83
2021/01/15 16:31:07;;;;;;;32.00;18.17;;;0.50;99.90;;;;;;4941686;28;83612;-85
2021/01/15 16:33:35;;;;;;;28.08;15.27;;;;;;;;;;4937661;28;83643;-85
2021/01/15 16:36:01;;;;;;;29.90;17.67;;;;;;;;;;4943410;28;84262;-84
2021/01/15 16:38:27;;;;;;;31.92;16.48;;;;;;;;;;4935365;28;83981;-86
2021/01/15 16:40:59;;;;;;;26.95;15.68;;;0.70;99.90;;;;;;4943006;28;83970;-85
2021/01/15 16:43:26;;;;;;;33.13;18.15;;;;;;;;;;4942207;28;83649;-85
2021/01/15 16:45:52;;;;;;;36.97;24.27;;;0.70;99.90;;;;;;4944768;28;84769;-85
2021/01/15 16:48:18;;;;;;;27.75;16.98;;;;;;;;;;4935905;28;83924;-85
2021/01/15 16:50:44;;;;;;;34.80;19.70;;;;;;;;;;4937720;28;83941;-85
2021/01/15 16:53:11;;;;;;;27.98;15.50;;;0.60;99.90;;;;;;4942857;28;83619;-85
2021/01/15 16:55:39;;;;;;;30.17;16.83;;;0.60;99.90;;;;;;4947586;28;83906;-85
2021/01/15 16:58:07;;;;;;;90.88;36.88;;;0.60;99.90;;;;;;4940148;28;84527;-82
2021/01/15 17:00:33;;;;;;;49.00;27.65;;;;;;;;;;4950196;28;83069;-82
2021/01/15 17:02:59;;;;;;;33.17;18.10;;;0.60;99.90;;;;;;4939499;28;83802;-82
2021/01/15 17:05:25;;;;;;;31.42;17.60;;;0.60;99.90;;;;;;4944711;28;83525;-83
2021/01/15 17:07:52;;;;;;;32.80;16.30;;;0.70;99.90;;;;;;4955812;28;86534;-82
2021/01/15 17:10:19;;;;;;;35.20;18.08;;;0.70;99.90;;;;;;4937666;28;83640;-82
2021/01/15 17:12:45;;;;;;;35.88;17.48;;;0.60;99.90;;;;;;4947783;28;84030;-82
2021/01/15 17:15:11;;;;;;;33.90;19.17;;;0.50;99.90;;;;;;4944444;28;84503;-80
2021/01/15 17:17:38;;;;;;;31.60;17.77;;;0.60;99.90;;;;;;4941649;28;83749;-82
2021/01/15 17:20:06;;;;;;;35.25;17.50;;;0.60;99.90;;;;;;4946735;28;83620;-81
2021/01/15 17:22:35;;;;;;;34.40;17.50;;;0.60;99.90;;;;;;4940886;28;83641;-81
2021/01/15 17:25:01;;;;;;;36.50;19.08;;;0.60;99.90;;;;;;4941110;28;84253;-84
2021/01/15 17:27:27;;;;;;;39.03;19.90;;;0.60;99.90;;;;;;4949122;28;84058;-81
2021/01/15 17:29:52;;;;;;;37.55;18.35;;;0.60;99.90;;;;;;4956673;28;83186;-82
2021/01/15 17:32:19;;;;;;;36.42;19.05;;;0.60;99.90;;;;;;4940335;28;84187;-84
2021/01/15 17:34:45;;;;;;;34.65;17.88;;;;;;;;;;4947055;28;85917;-84
2021/01/15 17:37:11;;;;;;;39.65;20.85;;;0.50;99.90;;;;;;4939948;28;83923;-86
2021/01/15 17:39:37;;;;;;;39.90;22.48;;;0.40;99.90;;;;;;4965292;28;83278;-82
2021/01/15 17:42:02;;;;;;;40.15;22.20;;;0.50;99.90;;;;;;4949486;28;83338;-83
2021/01/15 17:44:29;;;;;;;37.22;20.55;;;;;;;;;;4954835;28;84101;-85
2021/01/15 17:46:55;;;;;;;31.70;16.90;;;0.50;99.90;;;;;;4947159;28;83619;-82
2021/01/15 17:49:22;;;;;;;34.13;16.65;;;0.60;99.90;;;;;;4954658;28;82990;-82
2021/01/15 17:51:48;;;;;;;31.90;15.07;;;0.50;99.90;;;;;;4962625;28;83258;-81
2021/01/15 17:54:14;;;;;;;31.58;16.85;;;0.50;99.90;;;;;;4952869;28;83679;-86
2021/01/15 17:56:41;;;;;;;35.20;16.55;;;0.50;99.90;;;;;;4937724;28;83749;-83
2021/01/15 17:59:08;;;;;;;37.38;18.17;;;0.40;99.90;;;;;;4942349;28;83735;-82
2021/01/15 18:01:33;;;;;;;35.17;17.90;;;0.30;99.90;;;;;;4948255;28;83549;-85
2021/01/15 18:03:59;;;;;;;57.40;28.60;;;0.30;99.90;;;;;;4939198;28;83835;-83
2021/01/15 18:06:26;;;;;;;37.67;20.27;;;0.20;99.90;;;;;;4945997;28;84280;-84
2021/01/15 18:08:52;;;;;;;36.03;17.70;;;0.10;99.90;;;;;;4952593;28;83028;-85
2021/01/15 18:11:19;;;;;;;39.63;17.40;;;-0.10;99.90;;;;;;4945434;28;84938;-85
2021/01/15 18:13:45;;;;;;;37.90;19.60;;;-0.30;99.90;;;;;;4956140;28;84138;-81
2021/01/15 18:16:14;;;;;;;38.28;18.25;;;-0.40;99.90;;;;;;4943017;28;83870;-84
2021/01/15 18:18:40;;;;;;;40.50;21.00;;;-0.50;99.90;;;;;;4948774;28;83200;-88
2021/01/15 18:21:05;;;;;;;37.60;16.92;;;-0.60;99.90;;;;;;4947433;28;84003;-87
2021/01/15 18:23:32;;;;;;;34.30;17.00;;;-0.60;99.90;;;;;;4945389;28;84473;-88
2021/01/15 18:25:58;;;;;;;34.90;17.00;;;-0.70;99.90;;;;;;4938953;28;83635;-88
2021/01/15 18:28:24;;;;;;;33.45;18.10;;;;;;;;;;4944041;28;83184;-88
2021/01/15 18:30:50;;;;;;;36.78;18.05;;;;;;;;;;4939827;28;83734;-87
2021/01/15 18:33:16;;;;;;;53.28;21.67;;;-0.70;99.90;;;;;;4943280;28;84110;-87
2021/01/15 18:35:43;;;;;;;39.15;19.23;;;;;;;;;;4947990;28;84544;-88
2021/01/15 18:38:10;;;;;;;59.10;25.00;;;;;;;;;;4952582;28;84181;-87
2021/01/15 18:40:36;;;;;;;40.88;20.70;;;-0.80;99.90;;;;;;4932546;28;83594;-85
2021/01/15 18:43:02;;;;;;;45.13;22.27;;;;;;;;;;4937145;28;83592;-86
2021/01/15 18:45:29;;;;;;;42.05;19.45;;;-1.00;99.90;;;;;;4944644;28;85387;-85
2021/01/15 18:47:56;;;;;;;48.13;22.50;;;-1.10;99.90;;;;;;4942542;28;83844;-85
2021/01/15 18:50:30;;;;;;;45.13;20.77;;;-1.10;99.90;;;;;;4941114;28;83838;-86
2021/01/15 18:52:58;;;;;;;34.10;17.42;;;-1.40;99.90;;;;;;4941914;28;84908;-85
2021/01/15 18:55:24;;;;;;;39.67;17.40;;;-1.40;99.90;;;;;;4933780;28;85254;-86
2021/01/15 18:57:51;;;;;;;34.08;16.38;;;-1.50;99.90;;;;;;4942331;28;83134;-84
2021/01/15 19:00:20;;;;;;;35.05;16.80;;;-1.60;99.90;;;;;;4943833;28;84145;-85
2021/01/15 19:02:46;;;;;;;42.65;20.23;;;-1.60;99.90;;;;;;4936714;28;85186;-85
2021/01/15 19:05:12;;;;;;;41.28;19.67;;;-1.70;99.90;;;;;;4944369;28;85240;-84
2021/01/15 19:07:38;;;;;;;47.00;21.70;;;-1.70;99.90;;;;;;4944704;28;83552;-85
2021/01/15 19:10:05;;;;;;;44.85;21.33;;;-1.80;99.90;;;;;;4938751;28;83256;-83
2021/01/15 19:12:32;;;;;;;46.30;22.08;;;-1.80;99.90;;;;;;4943921;28;85231;-85
2021/01/15 19:15:00;;;;;;;40.63;19.48;;;-1.80;99.90;;;;;;4948889;28;83828;-85
2021/01/15 19:17:25;;;;;;;44.20;19.45;;;-1.90;99.90;;;;;;4942501;28;84398;-85
2021/01/15 19:19:51;;;;;;;51.80;21.60;;;-1.90;99.90;;;;;;4964831;28;84426;-85
2021/01/15 19:22:17;;;;;;;48.17;21.08;;;-1.90;99.90;;;;;;4943491;28;83630;-84
2021/01/15 19:24:43;;;;;;;42.22;19.08;;;-1.90;99.90;;;;;;4935612;28;84837;-85
2021/01/15 19:27:09;;;;;;;39.67;17.80;;;-1.90;99.90;;;;;;4937415;28;83916;-85
2021/01/15 19:29:37;;;;;;;39.92;18.88;;;-1.90;99.90;;;;;;4938679;28;84236;-85
2021/01/15 19:32:03;;;;;;;39.15;18.50;;;-2.00;99.90;;;;;;4936364;28;86246;-87
2021/01/15 19:34:29;;;;;;;41.13;17.65;;;-2.00;99.90;;;;;;4944642;28;83939;-84
2021/01/15 19:36:56;;;;;;;39.85;18.63;;;-2.00;99.90;;;;;;4946009;28;83563;-85
2021/01/15 19:39:22;;;;;;;39.63;18.23;;;-2.00;99.90;;;;;;4936981;28;83718;-86
2021/01/15 19:41:47;;;;;;;39.10;17.98;;;-2.00;99.90;;;;;;4946735;28;85150;-87
2021/01/15 19:44:14;;;;;;;45.22;18.55;;;-1.90;99.90;;;;;;4939908;28;83763;-85
2021/01/15 19:46:40;;;;;;;45.22;19.50;;;-2.00;99.90;;;;;;4950881;28;83977;-86
2021/01/15 19:49:08;;;;;;;44.15;18.83;;;-2.00;99.90;;;;;;4936780;28;85547;-86
2021/01/15 19:51:34;;;;;;;43.63;19.92;;;-2.00;99.90;;;;;;4933130;28;83542;-86
2021/01/15 19:54:00;;;;;;;46.75;20.13;;;-1.90;99.90;;;;;;4938730;28;83906;-85
2021/01/15 19:56:26;;;;;;;40.63;19.33;;;-2.00;99.90;;;;;;4948455;28;83667;-88
2021/01/15 19:58:52;;;;;;;47.35;19.92;;;-2.00;99.90;;;;;;4943557;28;83888;-86
2021/01/15 20:01:18;;;;;;;45.50;20.75;;;-2.00;99.90;;;;;;4937587;28;84623;-86
2021/01/15 20:03:44;;;;;;;38.75;18.55;;;-1.90;99.90;;;;;;4939167;28;83933;-88
2021/01/15 20:06:09;;;;;;;51.13;23.05;;;-1.90;99.90;;;;;;4933259;28;86486;-87
2021/01/15 20:08:35;;;;;;;43.13;19.23;;;-1.80;99.90;;;;;;4945751;28;83750;-87
2021/01/15 20:11:01;;;;;;;43.97;19.63;;;-1.80;99.90;;;;;;4937974;28;83373;-88
2021/01/15 20:13:27;;;;;;;43.80;19.20;;;;;;;;;;4939556;28;83790;-86
2021/01/15 20:15:53;;;;;;;39.13;17.15;;;-1.70;99.90;;;;;;4943842;28;84961;-88
2021/01/15 20:18:22;;;;;;;43.30;19.55;;;-1.70;99.90;;;;;;4959037;28;83856;-86
2021/01/15 20:20:51;;;;;;;47.63;21.25;;;-1.60;99.90;;;;;;4943673;28;84564;-88
2021/01/15 20:23:17;;;;;;;44.30;20.85;;;-1.60;99.90;;;;;;4944979;28;84098;-88
2021/01/15 20:25:44;;;;;;;47.60;20.70;;;;;;;;;;4948815;28;85260;-88
2021/01/15 20:28:11;;;;;;;48.25;21.30;;;-1.80;99.90;;;;;;4953001;28;83188;-88
2021/01/15 20:30:39;;;;;;;44.65;21.60;;;-1.90;99.90;;;;;;4941108;28;84716;-88
2021/01/15 20:33:06;;;;;;;46.53;21.88;;;-2.00;99.90;;;;;;4944705;28;86768;-88
2021/01/15 20:35:33;;;;;;;46.38;19.80;;;-2.10;99.90;;;;;;4945210;28;84352;-88
2021/01/15 20:37:59;;;;;;;53.20;23.65;;;-2.20;99.90;;;;;;4951732;28;84769;-88
2021/01/15 20:40:25;;;;;;;48.70;22.92;;;-2.30;99.90;;;;;;4936880;28;86163;-88
2021/01/15 20:42:53;;;;;;;53.50;24.60;;;-2.50;99.90;;;;;;4943811;28;85890;-88
2021/01/15 20:45:25;;;;;;;51.42;22.95;;;-2.60;99.90;;;;;;4950582;28;84732;-88
2021/01/15 20:48:14;;;;;;;55.13;23.60;;;-2.60;99.90;;;;;;4939258;28;85468;-89
2021/01/15 20:50:40;;;;;;;61.70;26.00;;;-2.60;99.90;;;;;;4951480;28;83950;-88
2021/01/15 20:53:09;;;;;;;64.28;28.10;;;;;;;;;;4957863;28;84731;-89
2021/01/15 20:55:38;;;;;;;54.67;23.83;;;-2.70;99.90;;;;;;4948264;28;85003;-89
2021/01/15 20:58:08;;;;;;;60.35;26.95;;;-2.90;99.90;;;;;;4952652;28;83701;-89
2021/01/15 21:00:36;;;;;;;52.17;23.33;;;-3.80;99.90;;;;;;4949887;28;85692;-90
2021/01/15 21:03:09;;;;;;;56.15;24.38;;;-3.00;99.90;;;;;;4948224;28;84756;-90
2021/01/15 21:05:44;;;;;;;46.67;22.50;;;-3.10;99.90;;;;;;4955611;28;83907;-89
2021/01/15 21:08:11;;;;;;;46.00;21.80;;;-3.20;99.90;;;;;;4958262;28;83310;-88
2021/01/15 21:10:39;;;;;;;49.58;21.67;;;-3.20;99.90;;;;;;4945100;28;83801;-89
2021/01/15 21:13:04;;;;;;;52.72;21.52;;;-3.30;99.90;;;;;;4954116;28;83816;-89
2021/01/15 21:15:33;;;;;;;52.20;22.70;;;-3.40;99.90;;;;;;4947010;28;83752;-89
2021/01/15 21:17:59;;;;;;;46.30;21.38;;;;;;;;;;4946151;28;83419;-88
2021/01/15 21:20:27;;;;;;;48.83;20.58;;;-3.60;99.90;;;;;;4947216;28;84534;-88
2021/01/15 21:22:58;;;;;;;53.00;22.10;;;-3.60;99.90;;;;;;4940871;28;83632;-89
2021/01/15 21:25:36;;;;;;;40.38;18.52;;;-3.60;99.90;;;;;;4951805;28;83425;-88
2021/01/15 21:28:04;;;;;;;53.05;21.52;;;-3.50;99.90;;;;;;4959652;28;83101;-87
2021/01/15 21:30:29;;;;;;;40.83;18.48;;;-3.70;99.90;;;;;;4942473;28;84750;-87
2021/01/15 21:32:58;;;;;;;47.40;20.05;;;-3.70;99.90;;;;;;4948562;28;83625;-89
2021/01/15 21:35:26;;;;;;;54.80;21.63;;;-3.70;99.90;;;;;;4944079;28;83544;-90
2021/01/15 21:37:55;;;;;;;46.20;19.65;;;-3.70;99.90;;;;;;4942584;28;83161;-88
2021/01/15 21:40:23;;;;;;;48.40;20.52;;;-3.70;99.90;;;;;;4948801;28;85484;-89
2021/01/15 21:42:49;;;;;;;48.60;20.52;;;;;;;;;;4942172;28;83860;-88
2021/01/15 21:45:20;;;;;;;56.38;19.85;;;-3.70;99.90;;;;;;4952929;28;85448;-90
2021/01/15 21:47:47;;;;;;;48.50;20.05;;;;;;;;;;4940909;28;83696;-89
2021/01/15 21:50:17;;;;;;;43.55;18.55;;;-3.90;99.90;;;;;;4938993;28;83899;-90
2021/01/15 21:52:54;;;;;;;40.00;18.52;;;-3.90;99.90;;;;;;4939741;28;87754;-89
2021/01/15 21:55:21;;;;;;;43.22;18.65;;;-4.00;99.90;;;;;;4960910;28;83785;-90
2021/01/15 21:57:50;;;;;;;43.17;18.83;;;-4.00;99.90;;;;;;4963970;28;83230;-89
2021/01/15 22:00:18;;;;;;;43.33;19.85;;;-4.00;99.90;;;;;;4947658;28;84571;-89
2021/01/15 22:03:07;;;;;;;45.55;19.52;;;-4.00;99.90;;;;;;4912160;28;84760;-88
2021/01/15 22:05:35;;;;;;;44.50;19.17;;;-4.00;99.90;;;;;;4937063;28;84969;-88
2021/01/15 22:08:07;;;;;;;47.35;20.35;;;-4.10;99.90;;;;;;4951155;28;83506;-88
2021/01/15 22:10:43;;;;;;;45.45;18.75;;;-4.10;99.90;;;;;;4920378;28;84003;-89
2021/01/15 22:13:14;;;;;;;49.87;19.23;;;-4.10;99.90;;;;;;4924425;28;84265;-89
2021/01/15 22:15:41;;;;;;;44.92;19.85;;;-4.20;99.90;;;;;;4931214;28;83221;-88
2021/01/15 22:18:07;;;;;;;41.45;18.15;;;-4.10;99.90;;;;;;4915750;28;83791;-88
2021/01/15 22:20:34;;;;;;;45.95;19.67;;;-4.20;99.90;;;;;;4939088;28;84086;-90
2021/01/15 22:23:10;;;;;;;40.25;17.40;;;-4.10;99.90;;;;;;4914694;28;84815;-89
2021/01/15 22:25:38;;;;;;;39.85;17.10;;;-4.20;99.90;;;;;;4921432;28;86633;-90
2021/01/15 22:28:04;;;;;;;40.75;16.50;;;-4.00;99.90;;;;;;4904144;28;83820;-89
2021/01/15 22:30:33;;;;;;;36.83;16.17;;;-4.10;99.90;;;;;;4913991;28;84490;-89
2021/01/15 22:33:10;;;;;;;38.45;16.40;;;-4.10;99.90;;;;;;4919578;28;85309;-90
2021/01/15 22:35:49;;;;;;;40.33;17.43;;;-4.10;99.90;;;;;;4911224;28;83782;-89
2021/01/15 22:38:25;;;;;;;38.63;17.42;;;-4.10;99.90;;;;;;4913101;28;83633;-88
2021/01/15 22:40:57;;;;;;;36.08;15.73;;;-4.10;99.90;;;;;;4935166;28;84434;-90
2021/01/15 22:43:25;;;;;;;36.83;16.92;;;-4.10;99.90;;;;;;4930026;28;84355;-89
2021/01/15 22:46:14;;;;;;;42.97;15.90;;;-4.10;99.90;;;;;;4926637;28;84111;-89
2021/01/15 22:48:41;;;;;;;36.72;15.05;;;;;;;;;;4915512;28;84701;-89
2021/01/15 22:51:07;;;;;;;38.97;16.65;;;-4.10;99.90;;;;;;4884715;28;85448;-89
2021/01/15 22:53:40;;;;;;;40.50;16.60;;;-4.10;99.90;;;;;;4934301;28;84294;-89
2021/01/15 22:56:15;;;;;;;47.67;18.67;;;-4.20;99.90;;;;;;4872835;28;85432;-90
2021/01/15 22:58:48;;;;;;;40.75;17.65;;;-4.20;99.90;;;;;;4921316;28;83833;-89
